Terminal Aerodrome Forecast
Issued by NWS

Home | Current Version | Previous Version | Text Only | Print | Product List | Glossary On
Versions: 1 2 3 4 5 6 7 8 9 10 11 12
456
FTUS46 KEKA 260532
TAFUKI
TAF
KUKI 260532Z 2606/2706 00000KT P6SM SKC
     FM262000 14006KT P6SM SKC
     FM270000 24008KT P6SM SKC
     FM270300 36004KT P6SM SKC=

USA.gov is the U.S. government's official web portal to all federal, state and local government web resources and services.